Time;durP1;ratioP1;P1;durP2;ratioP2;P2;SDS_P1;SDS_P2;PMS_P1;PMS_P2;Temp;Humidity;BMP_temperature;BMP_pressure;BME280_temperature;BME280_humidity;BME280_pressure;Samples;Min_cycle;Max_cycle;Signal;HPM_P1;HPM_P2
2022/01/29 00:00:24;;;;;;;110.72;70.35;;;22.90;98.70;;;;;;4201677;28;20060;-69
2022/01/29 00:02:28;;;;;;;104.85;69.60;;;22.90;98.70;;;;;;4219021;28;20047;-69
2022/01/29 00:04:32;;;;;;;111.65;75.68;;;22.90;98.80;;;;;;4215286;28;20108;-69
2022/01/29 00:06:37;;;;;;;104.95;73.18;;;22.90;98.80;;;;;;4210466;28;20675;-69
2022/01/29 00:08:41;;;;;;;108.35;71.35;;;22.90;98.70;;;;;;4218378;28;20044;-69
2022/01/29 00:10:48;;;;;;;114.97;80.50;;;22.90;98.70;;;;;;4216383;28;20051;-69
2022/01/29 00:12:52;;;;;;;127.10;97.70;;;22.90;98.90;;;;;;4217550;28;20043;-69
2022/01/29 00:14:56;;;;;;;160.48;126.45;;;22.90;98.90;;;;;;4221838;28;20051;-69
2022/01/29 00:17:01;;;;;;;151.40;113.82;;;23.00;99.00;;;;;;4210742;28;20050;-67
2022/01/29 00:19:05;;;;;;;125.22;83.15;;;23.00;98.90;;;;;;4221240;28;20052;-67
2022/01/29 00:21:09;;;;;;;111.97;71.43;;;23.00;99.00;;;;;;4218526;28;20047;-68
2022/01/29 00:23:14;;;;;;;99.90;65.13;;;22.90;99.40;;;;;;4213849;28;20048;-68
2022/01/29 00:25:19;;;;;;;95.22;64.47;;;23.00;99.40;;;;;;4207745;28;20036;-68
2022/01/29 00:27:24;;;;;;;97.63;61.38;;;23.00;99.40;;;;;;4211374;28;20054;-68
2022/01/29 00:29:34;;;;;;;91.70;58.03;;;23.00;99.50;;;;;;4218980;28;20054;-68
2022/01/29 00:31:38;;;;;;;86.18;58.15;;;23.00;99.80;;;;;;4213531;28;20047;-68
2022/01/29 00:33:42;;;;;;;85.93;58.13;;;23.10;99.70;;;;;;4215258;28;20071;-68
2022/01/29 00:35:47;;;;;;;91.43;55.70;;;23.20;99.60;;;;;;4197184;28;20036;-68
2022/01/29 00:37:51;;;;;;;90.38;54.53;;;23.20;99.60;;;;;;4199142;28;20057;-68
2022/01/29 00:39:55;;;;;;;91.00;55.67;;;23.30;99.50;;;;;;4216111;28;20058;-68
2022/01/29 00:41:59;;;;;;;101.50;56.35;;;23.30;99.40;;;;;;4215691;28;20043;-67
2022/01/29 00:44:18;;;;;;;83.93;55.13;;;23.30;99.30;;;;;;4216489;28;20044;-69
2022/01/29 00:46:22;;;;;;;91.40;58.55;;;23.40;99.20;;;;;;4220336;28;20520;-69
2022/01/29 00:48:26;;;;;;;109.28;60.85;;;23.40;99.00;;;;;;4215403;28;20035;-69
2022/01/29 00:50:31;;;;;;;107.05;64.18;;;23.50;99.00;;;;;;4212433;28;20491;-70
2022/01/29 00:52:36;;;;;;;103.57;61.70;;;23.50;98.90;;;;;;4213635;28;20055;-69
2022/01/29 00:54:41;;;;;;;97.60;65.30;;;23.50;98.80;;;;;;4216444;28;20730;-69
2022/01/29 00:56:45;;;;;;;107.60;67.15;;;23.60;98.80;;;;;;4210123;28;20044;-69
2022/01/29 00:58:49;;;;;;;99.72;64.50;;;23.60;98.90;;;;;;4213555;28;20069;-70
2022/01/29 01:00:53;;;;;;;92.82;61.72;;;23.60;98.80;;;;;;4212581;28;20039;-69
2022/01/29 01:02:58;;;;;;;91.97;62.58;;;23.70;98.60;;;;;;4216454;28;20043;-69
2022/01/29 01:05:03;;;;;;;97.95;64.63;;;23.70;98.40;;;;;;4216336;28;20051;-69
2022/01/29 01:07:09;;;;;;;106.18;72.78;;;23.70;98.00;;;;;;4200147;28;20068;-69
2022/01/29 01:09:14;;;;;;;116.38;75.70;;;23.70;98.00;;;;;;4206932;28;20051;-69
2022/01/29 01:11:18;;;;;;;104.13;69.30;;;23.70;97.70;;;;;;4213601;28;20030;-69
2022/01/29 01:13:23;;;;;;;105.45;69.00;;;23.80;97.50;;;;;;4214414;28;20055;-69
2022/01/29 01:15:27;;;;;;;95.40;61.65;;;23.90;97.40;;;;;;4214846;28;20055;-69
2022/01/29 01:17:52;;;;;;;95.60;57.70;;;23.90;97.50;;;;;;4198449;28;20402;-70
2022/01/29 01:19:56;;;;;;;102.13;59.92;;;23.90;97.60;;;;;;4209611;28;20052;-73
2022/01/29 01:22:01;;;;;;;82.50;58.75;;;23.90;97.80;;;;;;4213569;28;20046;-68
2022/01/29 01:24:06;;;;;;;74.68;52.92;;;23.90;97.30;;;;;;4212641;28;20455;-67
2022/01/29 01:26:10;;;;;;;85.18;56.53;;;24.00;97.10;;;;;;4212053;28;20078;-67
2022/01/29 01:28:15;;;;;;;83.88;56.13;;;24.00;97.00;;;;;;4180136;28;20067;-68
2022/01/29 01:30:19;;;;;;;83.13;55.85;;;24.10;96.80;;;;;;4215679;28;20046;-68
2022/01/29 01:32:24;;;;;;;83.53;54.90;;;24.20;96.60;;;;;;4217820;28;20142;-69
2022/01/29 01:34:32;;;;;;;86.55;55.78;;;24.20;96.70;;;;;;4213067;28;20052;-69
2022/01/29 01:36:44;;;;;;;76.10;54.70;;;24.20;96.50;;;;;;4216794;28;20085;-68
2022/01/29 01:38:53;;;;;;;77.50;53.10;;;24.30;96.30;;;;;;4212577;28;20468;-68
2022/01/29 01:41:02;;;;;;;75.40;53.10;;;24.30;96.40;;;;;;4211562;28;20097;-69
2022/01/29 01:43:06;;;;;;;77.60;53.40;;;24.40;96.10;;;;;;4216221;28;20405;-68
2022/01/29 01:45:11;;;;;;;71.80;52.20;;;24.40;96.30;;;;;;4213671;28;20155;-68
2022/01/29 01:47:16;;;;;;;74.63;50.80;;;24.50;96.40;;;;;;4214392;28;20044;-68
2022/01/29 01:49:21;;;;;;;76.85;47.47;;;24.60;96.30;;;;;;4212007;28;20048;-68
2022/01/29 01:51:25;;;;;;;66.20;44.28;;;24.60;96.10;;;;;;4210239;28;20040;-69
2022/01/29 01:53:29;;;;;;;64.22;42.83;;;24.60;96.00;;;;;;4212760;28;20134;-69
2022/01/29 01:55:34;;;;;;;59.45;42.00;;;24.70;95.90;;;;;;4217482;28;20044;-69
2022/01/29 01:57:38;;;;;;;60.20;43.05;;;24.70;95.70;;;;;;4215334;28;20052;-70
2022/01/29 01:59:42;;;;;;;54.92;38.92;;;24.80;95.60;;;;;;4211678;28;20078;-69
2022/01/29 02:01:47;;;;;;;55.88;37.83;;;24.90;95.10;;;;;;4214082;28;20413;-70
2022/01/29 02:03:51;;;;;;;62.67;41.75;;;24.90;94.90;;;;;;4210257;28;20040;-69
2022/01/29 02:05:56;;;;;;;73.88;48.45;;;24.90;94.80;;;;;;4213172;28;20044;-70
2022/01/29 02:08:02;;;;;;;53.80;35.78;;;24.90;94.70;;;;;;4212555;28;20101;-69
2022/01/29 02:10:09;;;;;;;41.35;29.88;;;25.00;93.90;;;;;;4219916;28;20052;-70
2022/01/29 02:12:14;;;;;;;44.05;27.25;;;24.90;93.70;;;;;;4196601;28;20060;-69
2022/01/29 02:14:20;;;;;;;35.30;23.70;;;25.00;93.10;;;;;;4199827;28;20465;-69
2022/01/29 02:16:27;;;;;;;33.08;22.63;;;25.10;92.30;;;;;;4214233;28;20442;-70
2022/01/29 02:18:34;;;;;;;32.45;23.00;;;25.10;91.70;;;;;;4193499;28;20074;-67
2022/01/29 02:20:38;;;;;;;35.25;24.17;;;25.20;91.80;;;;;;4212830;28;20050;-67
2022/01/29 02:22:43;;;;;;;33.45;24.05;;;25.20;91.70;;;;;;4208583;28;20078;-68
2022/01/29 02:24:48;;;;;;;39.55;24.83;;;25.30;92.00;;;;;;4182962;28;20637;-68
2022/01/29 02:26:52;;;;;;;34.17;24.17;;;25.30;92.10;;;;;;4211839;28;20047;-68
2022/01/29 02:28:57;;;;;;;60.78;24.60;;;25.40;92.20;;;;;;4200015;28;20052;-69
2022/01/29 02:31:04;;;;;;;39.90;20.73;;;25.40;91.90;;;;;;4210601;28;20572;-69
2022/01/29 02:33:11;;;;;;;82.38;26.65;;;25.40;91.30;;;;;;4214952;28;20067;-69
2022/01/29 02:35:15;;;;;;;173.63;30.58;;;25.50;91.20;;;;;;4212318;28;20052;-69
2022/01/29 02:37:20;;;;;;;105.63;26.33;;;25.60;90.60;;;;;;4211199;28;20043;-69
2022/01/29 02:39:24;;;;;;;93.82;29.38;;;25.60;90.40;;;;;;4212339;28;20102;-69
2022/01/29 02:41:29;;;;;;;75.43;29.73;;;25.60;90.60;;;;;;4210695;28;20052;-69
2022/01/29 02:43:43;;;;;;;71.53;32.28;;;25.60;90.50;;;;;;4209812;28;20519;-69
2022/01/29 02:45:48;;;;;;;75.88;38.50;;;25.70;90.60;;;;;;4208401;28;20522;-68
2022/01/29 02:47:53;;;;;;;152.02;43.85;;;25.80;90.40;;;;;;4210337;28;20101;-68
2022/01/29 02:49:57;;;;;;;121.20;38.22;;;25.80;90.40;;;;;;4213177;28;20113;-68
2022/01/29 02:52:03;;;;;;;75.65;31.65;;;25.90;90.40;;;;;;4210331;28;20094;-68
2022/01/29 02:54:07;;;;;;;61.80;28.15;;;25.90;90.50;;;;;;4202987;28;20047;-68
2022/01/29 02:56:12;;;;;;;49.78;25.80;;;26.00;90.40;;;;;;4212311;28;20533;-69
2022/01/29 02:58:16;;;;;;;33.67;24.50;;;26.00;90.40;;;;;;4210864;28;20387;-69
2022/01/29 03:00:21;;;;;;;35.05;23.13;;;26.00;90.40;;;;;;4210040;28;20135;-69
2022/01/29 03:02:25;;;;;;;30.83;22.75;;;26.10;90.30;;;;;;4212589;28;20102;-69
2022/01/29 03:04:30;;;;;;;36.97;22.70;;;26.20;90.50;;;;;;4213724;28;20044;-69
2022/01/29 03:06:35;;;;;;;31.80;22.42;;;26.20;90.60;;;;;;4211628;28;20094;-69
2022/01/29 03:08:39;;;;;;;32.00;22.33;;;26.30;90.50;;;;;;4211170;28;20032;-69
2022/01/29 03:10:46;;;;;;;34.20;22.70;;;26.30;90.40;;;;;;4207523;28;20036;-69
2022/01/29 03:12:52;;;;;;;32.38;22.35;;;26.40;90.30;;;;;;4207100;28;20048;-69
2022/01/29 03:14:56;;;;;;;36.08;23.73;;;26.40;90.30;;;;;;4189716;28;20036;-69
2022/01/29 03:17:00;;;;;;;34.92;23.30;;;26.50;90.10;;;;;;4207627;28;20521;-68
2022/01/29 03:19:04;;;;;;;30.42;23.02;;;26.60;90.20;;;;;;4212505;28;20062;-69
2022/01/29 03:21:08;;;;;;;33.20;23.00;;;26.60;90.30;;;;;;4198394;28;20768;-69
2022/01/29 03:23:13;;;;;;;32.40;22.05;;;26.60;90.10;;;;;;4212778;28;20049;-68
2022/01/29 03:25:17;;;;;;;32.92;22.42;;;26.70;90.00;;;;;;4214705;28;20054;-69
2022/01/29 03:27:22;;;;;;;33.22;22.65;;;26.70;90.30;;;;;;4211783;28;20048;-69
2022/01/29 03:29:26;;;;;;;30.65;22.30;;;26.80;90.20;;;;;;4214103;28;20089;-69
2022/01/29 03:31:30;;;;;;;35.25;23.55;;;26.80;90.10;;;;;;4210104;28;20048;-68
2022/01/29 03:33:37;;;;;;;30.40;22.20;;;26.90;90.00;;;;;;4212200;28;20468;-68
2022/01/29 03:35:41;;;;;;;34.10;24.25;;;27.00;90.10;;;;;;4217951;28;20062;-69
2022/01/29 03:37:45;;;;;;;36.45;23.40;;;27.00;89.50;;;;;;4212306;28;20097;-68
2022/01/29 03:39:51;;;;;;;34.60;23.17;;;27.10;88.90;;;;;;4214448;28;20098;-68
2022/01/29 03:42:01;;;;;;;32.95;23.02;;;27.20;88.80;;;;;;4213831;28;20054;-69
2022/01/29 03:44:07;;;;;;;31.52;21.88;;;27.20;88.70;;;;;;4203729;28;20797;-69
2022/01/29 03:46:12;;;;;;;33.45;22.48;;;27.30;88.40;;;;;;4212463;28;20052;-68
2022/01/29 03:48:16;;;;;;;34.92;23.08;;;27.30;87.00;;;;;;4216115;28;20090;-68
2022/01/29 03:50:20;;;;;;;31.70;22.75;;;27.30;87.70;;;;;;4211864;28;20464;-68
2022/01/29 03:52:24;;;;;;;29.60;20.95;;;27.40;86.50;;;;;;4199947;28;20723;-68
2022/01/29 03:54:29;;;;;;;26.05;19.67;;;27.50;86.30;;;;;;4207619;28;20040;-69
2022/01/29 03:56:33;;;;;;;27.58;19.90;;;27.60;84.40;;;;;;4209876;28;20055;-68
2022/01/29 03:58:37;;;;;;;29.05;20.45;;;27.80;83.90;;;;;;4213624;28;20051;-69
2022/01/29 04:00:41;;;;;;;27.75;19.50;;;28.00;82.40;;;;;;4210269;28;20054;-68
2022/01/29 04:02:46;;;;;;;26.38;19.05;;;28.10;81.80;;;;;;4196416;28;20484;-69
2022/01/29 04:04:51;;;;;;;25.38;18.30;;;28.10;81.10;;;;;;4214420;28;20044;-69
2022/01/29 04:06:59;;;;;;;25.85;19.10;;;28.00;81.20;;;;;;4214024;28;20097;-69
2022/01/29 04:09:05;;;;;;;24.98;19.15;;;28.00;81.70;;;;;;4193418;28;20080;-69
2022/01/29 04:11:12;;;;;;;25.33;18.70;;;28.10;80.70;;;;;;4210074;28;20048;-69
2022/01/29 04:13:21;;;;;;;26.77;18.73;;;28.10;81.10;;;;;;4213503;28;20040;-68
2022/01/29 04:15:25;;;;;;;26.85;19.52;;;28.10;80.80;;;;;;4195800;28;20696;-68
2022/01/29 04:17:29;;;;;;;29.95;24.02;;;28.20;81.40;;;;;;4213439;28;20770;-68
2022/01/29 04:19:34;;;;;;;28.38;19.98;;;28.30;81.70;;;;;;4212387;28;20082;-69
2022/01/29 04:21:41;;;;;;;36.00;20.13;;;28.60;80.40;;;;;;4210590;28;20043;-67
2022/01/29 04:23:45;;;;;;;28.98;18.55;;;28.60;80.50;;;;;;4212111;28;20123;-68
2022/01/29 04:25:53;;;;;;;28.95;19.33;;;28.50;80.10;;;;;;4203176;28;20047;-68
2022/01/29 04:27:58;;;;;;;28.73;19.67;;;28.50;80.50;;;;;;4205924;28;20113;-68
2022/01/29 04:30:08;;;;;;;25.52;19.77;;;28.60;79.40;;;;;;4211445;28;20406;-67
2022/01/29 04:32:18;;;;;;;29.50;19.42;;;28.70;80.00;;;;;;4213411;28;20040;-68
2022/01/29 04:34:23;;;;;;;26.48;18.95;;;28.60;80.20;;;;;;4215199;28;20171;-68
2022/01/29 04:36:27;;;;;;;25.17;18.15;;;28.70;80.00;;;;;;4212016;28;20379;-67
2022/01/29 04:38:32;;;;;;;26.65;19.27;;;29.00;78.40;;;;;;4216753;28;20044;-68
2022/01/29 04:40:36;;;;;;;26.55;19.48;;;29.20;78.10;;;;;;4197521;28;20086;-67
2022/01/29 04:42:40;;;;;;;24.30;19.13;;;29.20;77.20;;;;;;4210549;28;20065;-68
2022/01/29 04:44:45;;;;;;;24.10;19.20;;;29.10;78.00;;;;;;4209519;28;20139;-68
2022/01/29 04:46:49;;;;;;;23.98;18.63;;;29.00;78.70;;;;;;4196155;28;20048;-68
2022/01/29 04:48:53;;;;;;;22.13;18.05;;;29.10;78.20;;;;;;4213226;28;20040;-68
2022/01/29 04:50:58;;;;;;;23.33;17.33;;;29.10;78.10;;;;;;4194901;28;20629;-67
2022/01/29 04:53:02;;;;;;;21.17;17.15;;;29.50;77.10;;;;;;4209865;28;20042;-69
2022/01/29 04:55:06;;;;;;;25.02;17.60;;;29.50;76.20;;;;;;4215727;28;20048;-68
2022/01/29 04:57:11;;;;;;;25.52;17.48;;;29.50;76.50;;;;;;4212527;28;20050;-69
2022/01/29 04:59:15;;;;;;;24.52;18.08;;;29.60;75.70;;;;;;4213138;28;20067;-69
2022/01/29 05:01:20;;;;;;;23.60;17.90;;;29.60;76.00;;;;;;4212610;28;20036;-70
2022/01/29 05:03:24;;;;;;;31.63;19.15;;;29.60;76.20;;;;;;4209470;28;20039;-68
2022/01/29 05:05:29;;;;;;;21.65;18.17;;;29.50;76.90;;;;;;4191449;28;20449;-69
2022/01/29 05:07:33;;;;;;;26.15;17.98;;;29.60;76.30;;;;;;4213094;28;20059;-69
2022/01/29 05:09:38;;;;;;;20.33;18.23;;;29.70;75.60;;;;;;4212516;28;20044;-70
2022/01/29 05:11:46;;;;;;;20.52;17.23;;;29.60;75.90;;;;;;4211425;28;20040;-69
2022/01/29 05:13:50;;;;;;;21.58;16.25;;;29.70;75.70;;;;;;4209890;28;20056;-69
2022/01/29 05:16:13;;;;;;;19.80;16.48;;;29.70;75.00;;;;;;4213605;28;20039;-69
2022/01/29 05:27:27;;;;;;;18.02;14.45;;;30.30;72.10;;;;;;4214341;28;20044;-68
2022/01/29 05:29:32;;;;;;;19.40;15.27;;;30.70;71.80;;;;;;4196886;28;20045;-68
2022/01/29 05:31:37;;;;;;;18.45;14.65;;;30.80;71.80;;;;;;4211664;28;20050;-70
2022/01/29 05:33:41;;;;;;;19.45;14.65;;;30.50;72.40;;;;;;4194775;28;20043;-68
2022/01/29 05:35:47;;;;;;;18.13;14.18;;;30.50;72.40;;;;;;4208880;28;20052;-68
2022/01/29 05:37:52;;;;;;;17.10;13.57;;;30.40;72.00;;;;;;4211157;28;20109;-68
2022/01/29 05:39:56;;;;;;;16.80;12.82;;;30.60;72.00;;;;;;4212584;28;20127;-68
2022/01/29 05:42:01;;;;;;;17.88;13.38;;;30.50;71.70;;;;;;4213950;28;20523;-68
2022/01/29 05:44:06;;;;;;;15.80;14.10;;;30.50;71.80;;;;;;4211933;28;20047;-68
2022/01/29 05:46:12;;;;;;;18.05;14.38;;;30.50;72.50;;;;;;4209051;28;20046;-68
2022/01/29 05:48:17;;;;;;;18.63;14.65;;;30.50;72.80;;;;;;4208546;28;20068;-68
2022/01/29 05:50:21;;;;;;;19.50;14.23;;;30.60;73.10;;;;;;4211346;28;20121;-68
2022/01/29 05:52:25;;;;;;;21.90;14.27;;;30.60;73.20;;;;;;4209268;28;20048;-68
2022/01/29 05:54:30;;;;;;;15.25;13.43;;;30.60;73.40;;;;;;4209168;28;20048;-68
2022/01/29 05:56:36;;;;;;;16.25;12.85;;;30.50;73.10;;;;;;4210352;28;20052;-68
2022/01/29 05:58:41;;;;;;;14.80;11.75;;;30.60;71.50;;;;;;4214784;28;20047;-68
2022/01/29 06:00:45;;;;;;;14.02;11.13;;;30.70;71.30;;;;;;4211532;28;20499;-68
2022/01/29 06:03:00;;;;;;;13.50;11.45;;;30.80;70.10;;;;;;4211423;28;20055;-68
2022/01/29 06:05:06;;;;;;;19.63;10.90;;;30.70;68.20;;;;;;4209126;28;20471;-68
2022/01/29 06:07:11;;;;;;;12.05;10.50;;;30.70;67.00;;;;;;4210307;28;20044;-68
2022/01/29 06:09:15;;;;;;;11.77;10.10;;;30.70;67.20;;;;;;4209232;28;20040;-68
2022/01/29 06:11:21;;;;;;;14.40;11.32;;;30.70;68.40;;;;;;4211942;28;20067;-68
2022/01/29 06:13:26;;;;;;;15.23;10.00;;;30.60;68.80;;;;;;4211236;28;20044;-68
2022/01/29 06:15:34;;;;;;;14.00;9.80;;;30.80;66.10;;;;;;4193081;28;20099;-67
2022/01/29 06:17:39;;;;;;;12.43;9.45;;;30.80;66.10;;;;;;4209531;28;20067;-67
2022/01/29 06:19:43;;;;;;;16.08;10.23;;;30.90;65.20;;;;;;4196704;28;20040;-68
2022/01/29 06:21:48;;;;;;;13.82;10.32;;;30.80;65.60;;;;;;4213080;28;20051;-68
2022/01/29 06:23:55;;;;;;;14.13;10.77;;;30.80;65.20;;;;;;4192496;28;20043;-67
2022/01/29 06:26:01;;;;;;;12.18;9.88;;;30.90;64.20;;;;;;4210646;28;20040;-67
2022/01/29 06:28:06;;;;;;;14.75;10.10;;;31.10;63.30;;;;;;4216030;28;20040;-68
2022/01/29 06:30:11;;;;;;;14.10;10.68;;;31.10;63.90;;;;;;4210894;28;20629;-68
2022/01/29 06:32:17;;;;;;;14.23;10.73;;;31.20;64.80;;;;;;4212479;28;20044;-67
2022/01/29 06:34:21;;;;;;;15.95;11.52;;;31.20;65.50;;;;;;4207146;28;20571;-67
2022/01/29 06:36:26;;;;;;;13.80;10.85;;;31.20;65.60;;;;;;4211738;28;20107;-66
2022/01/29 06:38:32;;;;;;;14.70;11.45;;;31.20;66.30;;;;;;4211150;28;20131;-67
2022/01/29 06:40:36;;;;;;;14.38;11.88;;;31.40;65.60;;;;;;4195436;28;20051;-67
2022/01/29 06:42:42;;;;;;;14.20;12.60;;;31.30;66.50;;;;;;4212864;28;20047;-67
2022/01/29 06:44:47;;;;;;;13.55;11.73;;;31.30;67.60;;;;;;4208540;28;20510;-67
2022/01/29 06:46:51;;;;;;;18.70;12.20;;;31.20;67.90;;;;;;4210728;28;20036;-67
2022/01/29 06:48:56;;;;;;;13.98;11.68;;;31.20;67.60;;;;;;4195898;28;20398;-68
2022/01/29 06:51:00;;;;;;;14.43;10.82;;;31.40;67.00;;;;;;4209787;28;20122;-67
2022/01/29 06:53:06;;;;;;;13.95;11.70;;;31.60;67.30;;;;;;4214119;28;20036;-67
2022/01/29 06:55:10;;;;;;;14.45;11.50;;;31.70;67.20;;;;;;4210090;28;20509;-68
2022/01/29 06:57:15;;;;;;;15.77;10.68;;;31.60;66.50;;;;;;4212300;28;20047;-68
2022/01/29 06:59:20;;;;;;;11.48;9.50;;;31.80;64.30;;;;;;4194270;28;20495;-68
2022/01/29 07:01:25;;;;;;;13.18;9.32;;;31.80;63.00;;;;;;4211602;28;20048;-67
2022/01/29 07:03:29;;;;;;;11.88;9.68;;;31.70;62.30;;;;;;4212624;28;20048;-68
2022/01/29 07:05:35;;;;;;;20.40;14.73;;;31.40;63.20;;;;;;4207510;28;20054;-67
2022/01/29 07:07:39;;;;;;;18.10;15.63;;;31.50;63.90;;;;;;4211096;28;20482;-67
2022/01/29 07:09:44;;;;;;;15.48;13.75;;;31.60;63.50;;;;;;4209017;28;20039;-69
2022/01/29 07:11:55;;;;;;;20.70;11.85;;;31.70;64.50;;;;;;4193913;28;20700;-67
2022/01/29 07:14:04;;;;;;;14.88;11.25;;;31.70;65.20;;;;;;4209382;28;20054;-67
2022/01/29 07:16:08;;;;;;;14.52;10.63;;;31.70;66.00;;;;;;4204767;28;20101;-67
2022/01/29 07:18:12;;;;;;;14.43;11.20;;;31.80;64.90;;;;;;4210729;28;20574;-67
2022/01/29 07:20:17;;;;;;;12.60;11.18;;;31.70;65.00;;;;;;4214678;28;20063;-67
2022/01/29 07:22:21;;;;;;;16.80;11.82;;;31.70;66.00;;;;;;4209558;28;20055;-67
2022/01/29 07:24:26;;;;;;;14.95;10.80;;;31.70;66.30;;;;;;4213361;28;20047;-67
2022/01/29 07:26:31;;;;;;;15.80;11.10;;;31.80;65.40;;;;;;4205225;28;20055;-67
2022/01/29 07:28:39;;;;;;;17.75;10.73;;;31.80;65.60;;;;;;4213416;28;20460;-67
2022/01/29 07:30:43;;;;;;;13.68;10.60;;;31.80;64.50;;;;;;4211084;28;20127;-67
2022/01/29 07:32:47;;;;;;;14.10;10.65;;;31.70;64.10;;;;;;4208858;28;20123;-67
2022/01/29 07:34:52;;;;;;;16.63;10.88;;;31.70;64.20;;;;;;4212121;28;20427;-68
2022/01/29 07:36:57;;;;;;;18.45;10.68;;;31.60;63.80;;;;;;4211710;28;20071;-68
2022/01/29 07:39:01;;;;;;;12.70;10.77;;;31.60;62.80;;;;;;4194615;28;20152;-68
2022/01/29 07:41:05;;;;;;;15.60;11.18;;;31.50;63.60;;;;;;4212776;28;20043;-68
2022/01/29 07:43:10;;;;;;;19.83;13.25;;;31.50;63.30;;;;;;4214214;28;20072;-67
2022/01/29 07:45:15;;;;;;;15.18;12.20;;;31.60;64.30;;;;;;4214014;28;20052;-66
2022/01/29 07:47:19;;;;;;;13.25;10.57;;;31.70;63.50;;;;;;4209378;28;20036;-67
2022/01/29 07:49:24;;;;;;;14.27;10.93;;;31.80;63.10;;;;;;4217524;28;20482;-67
2022/01/29 07:51:28;;;;;;;13.30;10.20;;;31.90;62.40;;;;;;4215502;28;20097;-67
2022/01/29 07:53:33;;;;;;;11.82;10.35;;;32.00;62.20;;;;;;4214670;28;20048;-67
2022/01/29 07:55:38;;;;;;;13.60;10.35;;;32.00;62.40;;;;;;4210638;28;20052;-68
2022/01/29 07:57:42;;;;;;;16.33;10.90;;;32.00;62.40;;;;;;4209425;28;20083;-67
2022/01/29 07:59:47;;;;;;;14.77;9.80;;;32.00;62.60;;;;;;4214287;28;20043;-67
2022/01/29 08:01:51;;;;;;;42.13;11.63;;;32.20;61.50;;;;;;4213369;28;20048;-67
2022/01/29 08:03:56;;;;;;;18.58;11.93;;;32.00;62.30;;;;;;4217230;28;20078;-67
2022/01/29 08:06:00;;;;;;;15.32;10.60;;;31.90;62.20;;;;;;4214912;28;20051;-67
2022/01/29 08:08:05;;;;;;;11.40;10.15;;;31.80;62.60;;;;;;4210188;28;20135;-66
2022/01/29 08:10:09;;;;;;;11.93;9.93;;;31.80;62.30;;;;;;4212022;28;20040;-66
2022/01/29 08:12:13;;;;;;;26.35;12.70;;;31.80;62.30;;;;;;4222367;28;20055;-67
2022/01/29 08:14:18;;;;;;;21.65;11.50;;;31.70;62.70;;;;;;4205070;28;20594;-68
2022/01/29 08:16:23;;;;;;;11.85;9.95;;;31.80;62.30;;;;;;4214450;28;20056;-67
2022/01/29 08:18:27;;;;;;;14.35;9.38;;;31.90;62.00;;;;;;4211679;28;20033;-67
2022/01/29 08:20:32;;;;;;;11.50;9.77;;;31.80;62.50;;;;;;4216204;28;20059;-67
2022/01/29 08:22:37;;;;;;;12.30;9.45;;;31.90;62.60;;;;;;4217609;28;20506;-67
2022/01/29 08:24:41;;;;;;;10.52;8.55;;;31.90;62.40;;;;;;4219712;28;20501;-67
2022/01/29 08:26:46;;;;;;;12.27;8.90;;;32.00;61.80;;;;;;4215401;28;20390;-67
2022/01/29 08:28:50;;;;;;;10.80;8.80;;;31.80;62.40;;;;;;4211734;28;20121;-67
2022/01/29 08:30:55;;;;;;;10.55;8.93;;;31.80;62.30;;;;;;4215787;28;20055;-67
2022/01/29 08:33:00;;;;;;;12.55;8.88;;;31.70;62.50;;;;;;4215518;28;20036;-67
2022/01/29 08:35:05;;;;;;;12.75;8.80;;;31.70;62.40;;;;;;4216006;28;20060;-67
2022/01/29 08:37:09;;;;;;;12.75;9.55;;;31.60;61.90;;;;;;4215081;28;20083;-67
2022/01/29 08:39:14;;;;;;;21.52;14.70;;;31.60;61.70;;;;;;4215000;28;20056;-67
2022/01/29 08:41:18;;;;;;;18.52;13.30;;;31.50;62.30;;;;;;4212661;28;20039;-67
2022/01/29 08:43:23;;;;;;;14.23;10.35;;;31.50;62.00;;;;;;4212605;28;20047;-67
2022/01/29 08:45:27;;;;;;;13.70;10.00;;;31.50;62.10;;;;;;4216930;28;20052;-67
2022/01/29 08:47:31;;;;;;;12.85;10.20;;;31.60;62.30;;;;;;4209995;28;20499;-67
2022/01/29 08:49:38;;;;;;;11.70;9.75;;;31.60;63.00;;;;;;4213527;28;20405;-67
2022/01/29 08:51:43;;;;;;;22.77;17.67;;;31.50;63.10;;;;;;4212911;28;20060;-67
2022/01/29 08:53:48;;;;;;;27.30;21.00;;;31.50;62.90;;;;;;4215973;28;20119;-67
2022/01/29 08:55:53;;;;;;;27.75;20.33;;;31.50;62.60;;;;;;4215767;28;20070;-67
2022/01/29 08:57:58;;;;;;;16.17;13.25;;;31.50;62.80;;;;;;4212932;28;20039;-67
2022/01/29 09:00:05;;;;;;;15.45;11.82;;;31.50;62.90;;;;;;4213465;28;20153;-68
2022/01/29 09:02:10;;;;;;;13.30;10.75;;;31.50;63.30;;;;;;4211379;28;20101;-67
2022/01/29 09:04:16;;;;;;;13.43;9.57;;;31.60;63.40;;;;;;4218111;28;20084;-67
2022/01/29 09:06:20;;;;;;;18.25;9.32;;;31.60;64.30;;;;;;4216063;28;20448;-67
2022/01/29 09:08:25;;;;;;;11.88;8.32;;;31.60;63.60;;;;;;4208957;28;20044;-67
2022/01/29 09:10:30;;;;;;;14.57;9.90;;;31.70;62.50;;;;;;4213946;28;20056;-68
2022/01/29 09:12:36;;;;;;;11.43;8.00;;;31.80;62.00;;;;;;4213926;28;20167;-68
2022/01/29 09:14:40;;;;;;;9.25;7.47;;;31.70;61.80;;;;;;4215605;28;20043;-67
2022/01/29 09:16:45;;;;;;;14.23;7.93;;;31.70;62.10;;;;;;4213459;28;20066;-67
2022/01/29 09:18:49;;;;;;;11.98;7.97;;;31.70;61.60;;;;;;4209965;28;20111;-67
2022/01/29 09:20:55;;;;;;;10.25;7.45;;;31.80;60.70;;;;;;4210175;28;20036;-67
2022/01/29 09:23:00;;;;;;;8.85;7.40;;;31.80;61.00;;;;;;4215149;28;20048;-67
2022/01/29 09:25:04;;;;;;;10.15;8.00;;;31.80;61.10;;;;;;4197784;28;20071;-66
2022/01/29 09:27:09;;;;;;;8.85;7.45;;;31.80;61.60;;;;;;4195463;28;20124;-67
2022/01/29 09:29:14;;;;;;;9.50;8.50;;;31.80;61.90;;;;;;4210035;28;20059;-67
2022/01/29 09:31:18;;;;;;;10.65;8.30;;;31.80;61.30;;;;;;4191677;28;20040;-67
2022/01/29 09:33:23;;;;;;;10.30;7.50;;;31.70;61.50;;;;;;4208181;28;20048;-66
2022/01/29 09:35:28;;;;;;;11.85;7.93;;;31.70;61.40;;;;;;4210460;28;20052;-67
2022/01/29 09:37:32;;;;;;;9.88;7.30;;;31.70;61.20;;;;;;4212508;28;20051;-67
2022/01/29 09:39:36;;;;;;;9.25;7.30;;;31.60;61.60;;;;;;4213169;28;20636;-67
2022/01/29 09:41:44;;;;;;;14.02;7.82;;;31.50;61.60;;;;;;4214905;28;20114;-67
2022/01/29 09:43:48;;;;;;;10.15;7.50;;;31.50;61.50;;;;;;4214374;28;20058;-69
2022/01/29 09:45:53;;;;;;;11.70;7.65;;;31.50;61.80;;;;;;4219419;28;20047;-67
2022/01/29 09:48:02;;;;;;;10.00;7.88;;;31.50;61.80;;;;;;4214508;28;20044;-68
2022/01/29 09:50:08;;;;;;;10.85;9.07;;;31.40;62.20;;;;;;4210306;28;20733;-68
2022/01/29 09:52:12;;;;;;;11.82;9.07;;;31.40;62.20;;;;;;4211629;28;20531;-68
2022/01/29 09:54:16;;;;;;;12.57;9.10;;;31.40;62.30;;;;;;4211820;28;20032;-67
2022/01/29 09:56:20;;;;;;;14.90;9.65;;;31.40;62.70;;;;;;4213086;28;20048;-67
2022/01/29 09:58:25;;;;;;;14.38;9.02;;;31.40;63.20;;;;;;4212759;28;20456;-67
2022/01/29 10:00:29;;;;;;;13.25;8.85;;;31.30;63.70;;;;;;4210740;28;20043;-68
2022/01/29 10:02:34;;;;;;;11.20;8.65;;;31.30;63.70;;;;;;4211073;28;20048;-67
2022/01/29 10:04:51;;;;;;;12.68;8.18;;;31.30;63.60;;;;;;4214104;28;20048;-68
2022/01/29 10:07:14;;;;;;;12.88;8.93;;;31.20;63.40;;;;;;4213157;28;20040;-67
2022/01/29 10:09:34;;;;;;;11.80;8.57;;;31.20;63.90;;;;;;4212109;28;21488;-67
2022/01/29 10:11:38;;;;;;;11.25;8.32;;;31.20;63.40;;;;;;4212192;28;20036;-67
2022/01/29 10:13:43;;;;;;;11.40;7.88;;;31.10;64.20;;;;;;4209659;28;20787;-67
2022/01/29 10:15:47;;;;;;;10.50;7.90;;;31.10;64.60;;;;;;4219890;28;20044;-67
2022/01/29 10:17:53;;;;;;;9.98;8.07;;;31.10;65.30;;;;;;4194414;28;20047;-67
2022/01/29 10:20:12;;;;;;;11.27;9.35;;;31.00;66.50;;;;;;4190132;28;20058;-68
2022/01/29 10:22:25;;;;;;;13.95;9.52;;;31.00;66.60;;;;;;4192554;28;20116;-68
2022/01/29 10:24:29;;;;;;;11.88;9.23;;;31.00;67.10;;;;;;4198012;28;20123;-67
2022/01/29 10:26:38;;;;;;;14.80;9.52;;;31.00;67.30;;;;;;4195088;28;20052;-68
2022/01/29 10:28:42;;;;;;;14.55;10.10;;;30.90;68.50;;;;;;4195612;28;20055;-67
2022/01/29 10:30:49;;;;;;;13.18;10.27;;;30.90;68.70;;;;;;4150405;28;20049;-67
2022/01/29 10:32:54;;;;;;;16.88;10.95;;;30.90;68.90;;;;;;4157348;28;20152;-68
2022/01/29 10:34:59;;;;;;;16.42;10.18;;;30.90;69.30;;;;;;4118133;28;20476;-67
2022/01/29 10:37:20;;;;;;;12.52;10.35;;;30.80;69.50;;;;;;4111240;28;20058;-66
2022/01/29 10:39:31;;;;;;;12.43;10.75;;;30.90;69.80;;;;;;4117483;28;20077;-68
2022/01/29 10:41:35;;;;;;;15.35;11.95;;;30.80;70.00;;;;;;4116579;28;20093;-68
2022/01/29 10:43:55;;;;;;;14.75;11.77;;;30.80;70.50;;;;;;4143057;28;20440;-68
2022/01/29 10:45:59;;;;;;;18.98;12.98;;;30.80;69.90;;;;;;4126401;28;20116;-69